createdAt,value
2019-04-14T00:01:43.415Z,30.72
2019-04-14T00:04:13.900Z,31.60
2019-04-14T00:06:44.026Z,29.15
2019-04-14T00:09:16.205Z,28.92
2019-04-14T00:11:46.175Z,29.37
2019-04-14T00:14:14.826Z,28.55
2019-04-14T00:16:44.531Z,29.72
2019-04-14T00:19:13.256Z,28.67
2019-04-14T00:21:41.702Z,29.90
2019-04-14T00:24:10.206Z,28.55
2019-04-14T00:26:38.710Z,28.87
2019-04-14T00:29:07.220Z,29.80
2019-04-14T00:31:37.106Z,28.67
2019-04-14T00:34:07.488Z,28.85
2019-04-14T00:36:38.010Z,30.27
2019-04-14T00:39:16.192Z,31.48
2019-04-14T00:41:53.890Z,28.87
2019-04-14T00:44:39.187Z,28.60
2019-04-14T00:47:09.905Z,29.42
2019-04-14T00:49:38.360Z,28.35
2019-04-14T00:52:07.924Z,29.72
2019-04-14T00:54:37.045Z,29.05
2019-04-14T00:57:05.894Z,29.07
2019-04-14T00:59:35.463Z,28.32
2019-04-14T01:02:05.569Z,30.27
2019-04-14T01:04:36.119Z,28.85
2019-04-14T01:07:04.687Z,30.90
2019-04-14T01:09:34.721Z,31.07
2019-04-14T01:12:03.903Z,30.52
2019-04-14T01:14:32.543Z,30.80
2019-04-14T01:17:00.982Z,30.92
2019-04-14T01:19:30.860Z,30.65
2019-04-14T01:21:59.512Z,30.30
2019-04-14T01:24:29.261Z,32.05
2019-04-14T01:26:57.857Z,30.05
2019-04-14T01:29:27.581Z,32.70
2019-04-14T01:31:56.250Z,30.92
2019-04-14T01:34:25.998Z,32.25
2019-04-14T01:36:54.591Z,32.03
2019-04-14T01:39:24.205Z,31.90
2019-04-14T01:41:54.186Z,31.85
2019-04-14T01:44:24.145Z,31.85
2019-04-14T01:46:52.841Z,32.65
2019-04-14T01:49:22.630Z,31.93
2019-04-14T01:52:08.677Z,32.20
2019-04-14T01:54:45.307Z,35.28
2019-04-14T01:57:22.060Z,34.45
2019-04-14T01:59:50.746Z,35.23
2019-04-14T02:02:21.159Z,34.45
2019-04-14T02:04:50.712Z,32.35
2019-04-14T02:07:19.305Z,33.55
2019-04-14T02:09:48.922Z,33.65
2019-04-14T02:12:17.479Z,31.68
2019-04-14T02:14:47.326Z,30.72
2019-04-14T02:17:15.953Z,31.75
2019-04-14T02:19:44.423Z,31.55
2019-04-14T02:22:13.817Z,31.85
2019-04-14T02:24:43.845Z,31.50
2019-04-14T02:27:14.117Z,30.70
2019-04-14T02:29:43.093Z,30.35
2019-04-14T02:35:13.154Z,31.27
2019-04-14T02:40:08.994Z,30.40
2019-04-14T02:42:39.570Z,28.95
2019-04-14T02:45:10.455Z,31.27
2019-04-14T02:47:53.700Z,30.05
2019-04-14T02:50:15.513Z,30.43
2019-04-14T02:52:46.945Z,29.63
2019-04-14T02:57:39.977Z,30.70
2019-04-14T03:00:19.651Z,30.50
2019-04-14T03:05:11.205Z,30.10
2019-04-14T03:10:12.591Z,29.05
2019-04-14T03:12:46.491Z,31.05
2019-04-14T03:15:13.129Z,28.92
2019-04-14T03:18:10.740Z,30.20
2019-04-14T03:23:14.335Z,30.57
2019-04-14T03:25:29.727Z,29.27
2019-04-14T03:28:26.212Z,30.02
2019-04-14T03:34:07.567Z,28.50
2019-04-14T03:37:07.986Z,29.32
2019-04-14T03:41:17.365Z,29.07
2019-04-14T03:43:39.236Z,29.85
2019-04-14T03:48:52.318Z,30.37
2019-04-14T03:53:32.521Z,31.02
2019-04-14T03:55:55.379Z,31.05
2019-04-14T03:58:20.496Z,29.75
2019-04-14T04:00:49.444Z,28.83
2019-04-14T04:03:18.018Z,28.60
2019-04-14T04:05:47.758Z,30.68
2019-04-14T04:08:17.920Z,29.52
2019-04-14T04:10:48.707Z,31.12
2019-04-14T04:13:17.475Z,29.87
2019-04-14T04:15:46.001Z,28.35
2019-04-14T04:18:22.054Z,30.20
2019-04-14T04:20:52.500Z,28.92
2019-04-14T04:23:27.082Z,29.37
2019-04-14T04:26:04.016Z,28.35
2019-04-14T04:28:34.256Z,28.02
2019-04-14T04:31:04.564Z,29.98
2019-04-14T04:33:47.870Z,30.45
2019-04-14T04:36:24.820Z,28.23
2019-04-14T04:39:08.275Z,30.32
2019-04-14T04:41:37.154Z,29.12
2019-04-14T04:44:05.613Z,29.67
2019-04-14T04:46:35.080Z,28.67
2019-04-14T04:49:12.771Z,29.85
2019-04-14T04:51:34.221Z,29.98
2019-04-14T04:54:03.801Z,29.80
2019-04-14T04:56:32.423Z,30.37
2019-04-14T04:59:01.134Z,29.42
2019-04-14T05:01:29.965Z,28.85
2019-04-14T05:03:58.464Z,29.45
2019-04-14T05:06:57.215Z,28.83
2019-04-14T05:09:38.571Z,29.87
2019-04-14T05:12:09.122Z,29.15
2019-04-14T05:14:39.682Z,30.60
2019-04-14T05:17:08.205Z,29.40
2019-04-14T05:19:39.416Z,29.07
2019-04-14T05:22:09.268Z,29.02
2019-04-14T05:24:38.090Z,30.10
2019-04-14T05:27:07.629Z,29.37
2019-04-14T05:29:36.529Z,29.35
2019-04-14T05:32:06.566Z,30.00
2019-04-14T05:34:35.427Z,29.98
2019-04-14T05:37:04.997Z,29.65
2019-04-14T05:39:33.563Z,30.37
2019-04-14T05:42:09.713Z,30.40
2019-04-14T05:44:32.200Z,30.90
2019-04-14T05:47:00.709Z,30.90
2019-04-14T05:49:38.191Z,32.05
2019-04-14T05:51:59.666Z,31.05
2019-04-14T05:54:28.131Z,32.10
2019-04-14T05:56:56.576Z,33.88
2019-04-14T05:59:25.053Z,34.30
2019-04-14T06:01:54.538Z,33.58
2019-04-14T06:04:24.321Z,35.80
2019-04-14T06:06:52.988Z,34.03
2019-04-14T06:09:21.751Z,34.92
2019-04-14T06:11:50.515Z,34.78
2019-04-14T06:14:19.066Z,34.88
2019-04-14T06:16:47.534Z,34.27
2019-04-14T06:19:15.976Z,34.90
2019-04-14T06:21:44.462Z,35.52
2019-04-14T06:24:12.897Z,36.08
2019-04-14T06:26:41.428Z,35.80
2019-04-14T06:29:09.937Z,35.23
2019-04-14T06:31:40.401Z,34.90
2019-04-14T06:34:26.877Z,36.23
2019-04-14T06:37:09.206Z,35.68
2019-04-14T06:39:45.365Z,36.38
2019-04-14T06:42:13.856Z,35.03
2019-04-14T06:44:42.581Z,35.13
2019-04-14T06:47:11.096Z,36.65
2019-04-14T06:49:48.826Z,36.08
2019-04-14T06:52:10.217Z,36.08
2019-04-14T06:54:38.723Z,35.83
2019-04-14T06:57:07.442Z,34.73
2019-04-14T06:59:35.966Z,36.05
2019-04-14T07:02:04.464Z,34.60
2019-04-14T07:04:33.005Z,35.00
2019-04-14T07:07:01.532Z,34.85
2019-04-14T07:09:30.341Z,34.90
2019-04-14T07:11:58.872Z,35.60
2019-04-14T07:14:31.708Z,35.33
2019-04-14T07:16:57.756Z,35.65
2019-04-14T07:19:26.261Z,34.67
2019-04-14T07:21:55.123Z,34.80
2019-04-14T07:24:24.280Z,35.15
2019-04-14T07:26:52.755Z,35.65
2019-04-14T07:29:21.614Z,34.70
2019-04-14T07:31:51.835Z,33.85
2019-04-14T07:34:27.793Z,34.43
2019-04-14T07:37:10.065Z,34.92
2019-04-14T07:39:52.487Z,34.38
2019-04-14T07:42:22.660Z,34.40
2019-04-14T07:45:11.272Z,33.05
2019-04-14T07:47:47.437Z,33.73
2019-04-14T07:50:23.875Z,33.65
2019-04-14T07:53:10.862Z,33.42
2019-04-14T07:55:47.557Z,32.83
2019-04-14T07:58:27.441Z,31.85
2019-04-14T08:00:57.516Z,33.00
2019-04-14T08:03:44.139Z,33.70
2019-04-14T08:06:12.591Z,32.67
2019-04-14T08:08:41.034Z,33.18
2019-04-14T08:11:09.602Z,31.95
2019-04-14T08:13:38.040Z,33.58
2019-04-14T08:16:06.499Z,32.65
2019-04-14T08:18:36.881Z,34.10
2019-04-14T08:21:05.341Z,34.55
2019-04-14T08:23:33.794Z,34.43
2019-04-14T08:26:02.590Z,32.35
2019-04-14T08:28:31.105Z,34.30
2019-04-14T08:30:59.837Z,34.33
2019-04-14T08:33:28.358Z,33.48
2019-04-14T08:35:56.985Z,34.40
2019-04-14T08:38:25.481Z,34.38
2019-04-14T08:40:55.145Z,33.58
2019-04-14T08:43:30.833Z,36.05
2019-04-14T08:46:06.965Z,35.65
2019-04-14T08:48:52.101Z,33.98
2019-04-14T08:54:00.918Z,34.45
2019-04-14T08:56:31.444Z,35.38
2019-04-14T08:59:01.870Z,33.65
2019-04-14T09:01:50.196Z,35.13
2019-04-14T09:04:26.075Z,34.92
2019-04-14T09:07:12.739Z,35.25
2019-04-14T09:09:42.857Z,34.30
2019-04-14T09:12:15.798Z,34.20
2019-04-14T09:14:56.366Z,33.70
2019-04-14T09:17:14.395Z,34.18
2019-04-14T09:19:43.303Z,33.95
2019-04-14T09:22:11.793Z,34.18
2019-04-14T09:24:41.694Z,32.90
2019-04-14T09:27:10.197Z,33.00
2019-04-14T09:29:38.702Z,33.92
2019-04-14T09:32:09.192Z,34.45
2019-04-14T09:34:37.681Z,34.70
2019-04-14T09:37:06.578Z,33.02
2019-04-14T09:39:35.097Z,32.83
2019-04-14T09:42:03.560Z,33.98
2019-04-14T09:44:32.044Z,32.33
2019-04-14T09:47:00.749Z,33.10
2019-04-14T09:49:30.327Z,32.88
2019-04-14T09:51:58.913Z,31.82
2019-04-14T09:54:27.461Z,32.40
2019-04-14T09:56:56.028Z,32.67
2019-04-14T09:59:24.538Z,31.73
2019-04-14T10:01:52.996Z,30.90
2019-04-14T10:04:21.556Z,30.80
2019-04-14T10:06:50.027Z,31.75
2019-04-14T10:09:18.632Z,31.87
2019-04-14T10:11:48.770Z,32.42
2019-04-14T10:14:17.672Z,31.65
2019-04-14T10:16:46.156Z,32.70
2019-04-14T10:19:14.587Z,32.03
2019-04-14T10:21:43.177Z,31.05
2019-04-14T10:24:11.939Z,30.25
2019-04-14T10:26:40.528Z,31.70
2019-04-14T10:29:09.038Z,29.98
2019-04-14T10:31:37.506Z,29.30
2019-04-14T10:34:06.013Z,30.85
2019-04-14T10:36:34.859Z,28.95
2019-04-14T10:39:05.521Z,28.83
2019-04-14T10:41:34.028Z,29.35
2019-04-14T10:44:02.605Z,28.85
2019-04-14T10:46:31.440Z,30.30
2019-04-14T10:48:59.899Z,29.23
2019-04-14T10:51:30.265Z,30.10
2019-04-14T10:53:59.184Z,29.15
2019-04-14T10:56:27.949Z,30.08
2019-04-14T10:58:56.484Z,29.57
2019-04-14T11:01:25.006Z,29.35
2019-04-14T11:03:53.550Z,29.87
2019-04-14T11:06:23.979Z,29.32
2019-04-14T11:08:52.454Z,30.10
2019-04-14T11:11:20.936Z,29.63
2019-04-14T11:13:49.735Z,30.55
2019-04-14T11:16:18.209Z,30.55
2019-04-14T11:18:46.997Z,31.10
2019-04-14T11:21:15.484Z,30.05
2019-04-14T11:23:44.269Z,29.65
2019-04-14T11:26:12.828Z,30.82
2019-04-14T11:28:41.384Z,31.07
2019-04-14T11:31:10.340Z,30.80
2019-04-14T11:33:55.883Z,31.33
2019-04-14T11:36:41.564Z,31.68
2019-04-14T11:39:11.955Z,30.92
2019-04-14T11:41:40.481Z,29.45
2019-04-14T11:44:09.283Z,31.82
2019-04-14T11:46:37.847Z,31.27
2019-04-14T11:49:06.434Z,31.25
2019-04-14T11:51:35.022Z,31.02
2019-04-14T11:54:03.852Z,30.52
2019-04-14T11:56:32.354Z,30.17
2019-04-14T11:59:01.136Z,30.37
2019-04-14T12:01:37.480Z,30.60
2019-04-14T12:04:07.694Z,29.95
2019-04-14T12:06:40.989Z,31.15
2019-04-14T12:09:19.913Z,30.82
2019-04-14T12:11:48.424Z,27.70
2019-04-14T12:14:16.885Z,30.95
2019-04-14T12:16:45.363Z,29.32
2019-04-14T12:19:14.219Z,29.57
2019-04-14T12:21:42.699Z,28.95
2019-04-14T12:24:11.493Z,29.98
2019-04-14T12:26:40.357Z,28.80
2019-04-14T12:29:09.736Z,29.92
2019-04-14T12:31:39.425Z,30.37
2019-04-14T12:34:08.089Z,28.92
2019-04-14T12:36:36.622Z,29.30
2019-04-14T12:39:08.185Z,29.40
2019-04-14T12:41:41.633Z,28.70
2019-04-14T12:44:11.751Z,28.67
2019-04-14T12:46:44.677Z,29.95
2019-04-14T12:49:17.269Z,29.42
2019-04-14T12:51:56.216Z,29.00
2019-04-14T12:54:26.578Z,28.00
2019-04-14T12:56:55.361Z,29.52
2019-04-14T12:59:24.579Z,27.95
2019-04-14T13:02:03.957Z,27.93
2019-04-14T13:04:32.703Z,27.62
2019-04-14T13:07:01.609Z,27.05
2019-04-14T13:09:30.091Z,28.25
2019-04-14T13:11:58.596Z,24.98
2019-04-14T13:14:27.084Z,25.68
2019-04-14T13:16:55.815Z,25.40
2019-04-14T13:19:24.556Z,26.07
2019-04-14T13:21:53.026Z,26.05
2019-04-14T13:24:21.761Z,28.25
2019-04-14T13:26:50.304Z,26.75
2019-04-14T13:29:19.023Z,28.62
2019-04-14T13:31:47.894Z,28.60
2019-04-14T13:34:16.355Z,27.70
2019-04-14T13:36:44.860Z,30.08
2019-04-14T13:39:13.434Z,29.77
2019-04-14T13:41:42.005Z,28.60
2019-04-14T13:44:11.088Z,28.62
2019-04-14T13:46:39.544Z,30.15
2019-04-14T13:49:08.030Z,29.20
2019-04-14T13:51:37.524Z,28.80
2019-04-14T13:54:06.314Z,29.07
2019-04-14T13:56:34.989Z,29.15
2019-04-14T13:59:03.631Z,29.02
2019-04-14T14:01:32.457Z,29.32
2019-04-14T14:04:00.977Z,29.60
2019-04-14T14:06:32.819Z,30.30
2019-04-14T14:09:01.332Z,28.27
2019-04-14T14:11:32.433Z,29.75
2019-04-14T14:14:11.864Z,27.27
2019-04-14T14:16:48.303Z,27.37
2019-04-14T14:19:27.530Z,28.47
2019-04-14T14:21:57.633Z,28.35
2019-04-14T14:24:36.764Z,29.20
2019-04-14T14:27:06.859Z,29.23
2019-04-14T14:29:35.353Z,29.82
2019-04-14T14:32:05.530Z,30.20
2019-04-14T14:34:34.020Z,29.60
2019-04-14T14:37:02.543Z,28.90
2019-04-14T14:39:31.154Z,27.90
2019-04-14T14:41:59.937Z,28.77
2019-04-14T14:44:30.087Z,27.50
2019-04-14T14:47:00.502Z,29.57
2019-04-14T14:49:39.711Z,27.05
2019-04-14T14:52:10.099Z,29.55
2019-04-14T14:54:38.621Z,28.23
2019-04-14T14:57:07.357Z,28.02
2019-04-14T14:59:36.249Z,29.02
2019-04-14T15:02:04.967Z,27.73
2019-04-14T15:04:33.465Z,26.33
2019-04-14T15:07:01.940Z,26.55
2019-04-14T15:09:30.442Z,27.13
2019-04-14T15:11:58.929Z,25.95
2019-04-14T15:14:27.461Z,26.27
2019-04-14T15:16:55.901Z,25.43
2019-04-14T15:19:25.540Z,24.90
2019-04-14T15:21:54.144Z,24.80
2019-04-14T15:24:22.608Z,23.05
2019-04-14T15:26:51.119Z,24.57
2019-04-14T15:29:19.595Z,24.90
2019-04-14T15:31:48.027Z,24.37
2019-04-14T15:34:16.790Z,24.40
2019-04-14T15:36:45.302Z,24.15
2019-04-14T15:39:13.918Z,24.30
2019-04-14T15:41:43.489Z,24.37
2019-04-14T15:44:11.953Z,24.05
2019-04-14T15:46:40.446Z,23.67
2019-04-14T15:49:08.969Z,23.77
2019-04-14T15:51:37.411Z,24.52
2019-04-14T15:54:05.872Z,23.42
2019-04-14T15:56:45.162Z,23.38
2019-04-14T15:59:32.557Z,23.60
2019-04-14T16:02:16.087Z,23.35
2019-04-14T16:04:46.188Z,23.60
2019-04-14T16:07:22.314Z,24.00
2019-04-14T16:10:10.760Z,23.38
2019-04-14T16:12:43.772Z,23.12
2019-04-14T16:15:30.221Z,23.67
2019-04-14T16:18:00.307Z,22.27
2019-04-14T16:20:30.700Z,22.60
2019-04-14T16:22:59.144Z,22.67
2019-04-14T16:25:38.870Z,21.62
2019-04-14T16:28:08.957Z,22.32
2019-04-14T16:30:41.752Z,21.73
2019-04-14T16:33:11.857Z,22.62
2019-04-14T16:35:41.538Z,21.05
2019-04-14T16:38:10.069Z,21.35
2019-04-14T16:40:38.579Z,21.02
2019-04-14T16:43:07.040Z,20.85
2019-04-14T16:45:38.439Z,21.52
2019-04-14T16:48:10.096Z,21.37
2019-04-14T16:50:38.533Z,21.15
2019-04-14T16:53:23.806Z,21.90
2019-04-14T16:58:25.989Z,21.97
2019-04-14T17:01:08.305Z,22.60
2019-04-14T17:03:36.775Z,21.85
2019-04-14T17:06:05.741Z,21.97
2019-04-14T17:08:34.231Z,22.45
2019-04-14T17:11:02.735Z,23.15
2019-04-14T17:13:33.153Z,22.17
2019-04-14T17:16:09.409Z,21.75
2019-04-14T17:18:45.453Z,21.73
2019-04-14T17:21:24.529Z,20.77
2019-04-14T17:24:10.637Z,22.10
2019-04-14T17:26:35.634Z,21.48
2019-04-14T17:29:17.515Z,21.23
2019-04-14T17:31:48.383Z,21.27
2019-04-14T17:34:27.531Z,21.93
2019-04-14T17:37:06.644Z,21.20
2019-04-14T17:39:39.458Z,21.33
2019-04-14T17:42:15.373Z,21.12
2019-04-14T17:44:48.679Z,21.37
2019-04-14T17:47:18.801Z,22.82
2019-04-14T17:50:05.214Z,22.62
2019-04-14T17:52:35.332Z,24.85
2019-04-14T17:55:17.168Z,19.95
2019-04-14T17:57:52.804Z,18.82
2019-04-14T18:00:26.123Z,18.37
2019-04-14T18:03:02.230Z,18.95
2019-04-14T18:05:47.871Z,18.60
2019-04-14T18:08:34.524Z,18.62
2019-04-14T18:11:07.321Z,18.52
2019-04-14T18:13:37.697Z,18.98
2019-04-14T18:16:08.054Z,18.37
2019-04-14T18:18:41.213Z,17.32
2019-04-14T18:21:11.586Z,18.27
2019-04-14T18:23:40.560Z,18.70
2019-04-14T18:26:10.003Z,18.82
2019-04-14T18:28:40.423Z,18.60
2019-04-14T18:31:22.468Z,18.65
2019-04-14T18:33:58.730Z,18.42
2019-04-14T18:36:38.298Z,18.10
2019-04-14T18:39:13.438Z,18.50
2019-04-14T18:41:52.340Z,18.12
2019-04-14T18:44:25.414Z,18.12
2019-04-14T18:46:58.782Z,19.40
2019-04-14T18:49:28.886Z,19.67
2019-04-14T18:51:59.255Z,19.30
2019-04-14T18:54:29.672Z,18.75
2019-04-14T18:57:00.074Z,19.23
2019-04-14T18:59:30.414Z,18.15
2019-04-14T19:02:00.083Z,19.77
2019-04-14T19:04:28.808Z,19.25
2019-04-14T19:06:57.424Z,18.52
2019-04-14T19:09:26.142Z,20.15
2019-04-14T19:11:59.381Z,19.42
2019-04-14T19:14:29.734Z,19.57
2019-04-14T19:17:03.065Z,20.70
2019-04-14T19:19:33.432Z,19.10
2019-04-14T19:22:01.893Z,19.67
2019-04-14T19:24:30.343Z,20.02
2019-04-14T19:26:58.799Z,19.73
2019-04-14T19:29:27.872Z,19.82
2019-04-14T19:31:56.574Z,20.43
2019-04-14T19:34:25.051Z,20.00
2019-04-14T19:36:53.839Z,20.20
2019-04-14T19:39:22.370Z,20.65
2019-04-14T19:41:50.831Z,20.00
2019-04-14T19:44:19.316Z,20.12
2019-04-14T19:46:48.071Z,20.60
2019-04-14T19:49:16.785Z,20.40
2019-04-14T19:51:45.479Z,19.67
2019-04-14T19:54:13.983Z,20.95
2019-04-14T19:56:42.687Z,21.00
2019-04-14T19:59:11.163Z,19.48
2019-04-14T20:01:39.687Z,20.30
2019-04-14T20:04:08.141Z,19.45
2019-04-14T20:06:57.769Z,18.45
2019-04-14T20:09:26.227Z,20.05
2019-04-14T20:11:55.464Z,20.77
2019-04-14T20:14:24.473Z,19.57
2019-04-14T20:17:06.916Z,19.17
2019-04-14T20:19:43.041Z,19.87
2019-04-14T20:22:13.418Z,20.12
2019-04-14T20:24:49.220Z,20.43
2019-04-14T20:27:22.080Z,20.35
2019-04-14T20:29:52.432Z,19.05
2019-04-14T20:32:22.799Z,18.92
2019-04-14T20:34:51.242Z,18.77
2019-04-14T20:37:19.764Z,18.60
2019-04-14T20:39:48.251Z,19.35
2019-04-14T20:42:16.771Z,19.05
2019-04-14T20:44:45.242Z,19.62
2019-04-14T20:47:13.688Z,19.30
2019-04-14T20:49:42.149Z,19.23
2019-04-14T20:52:10.608Z,17.90
2019-04-14T20:54:39.068Z,19.02
2019-04-14T20:57:07.937Z,18.77
2019-04-14T20:59:36.454Z,18.98
2019-04-14T21:02:22.726Z,19.12
2019-04-14T21:04:55.809Z,18.23
2019-04-14T21:07:42.385Z,19.12
2019-04-14T21:10:18.653Z,19.85
2019-04-14T21:13:01.030Z,18.35
2019-04-14T21:15:31.421Z,18.73
2019-04-14T21:18:07.653Z,18.40
2019-04-14T21:20:37.759Z,19.27
2019-04-14T21:23:08.109Z,18.37
2019-04-14T21:25:38.194Z,18.35
2019-04-14T21:28:20.616Z,17.77
2019-04-14T21:30:53.792Z,18.90
2019-04-14T21:33:24.164Z,18.48
2019-04-14T21:36:00.674Z,18.12
2019-04-14T21:38:36.698Z,19.07
2019-04-14T21:41:06.862Z,18.30
2019-04-14T21:43:35.580Z,19.40
2019-04-14T21:46:04.709Z,18.40
2019-04-14T21:48:33.183Z,19.05
2019-04-14T21:51:01.695Z,18.17
2019-04-14T21:53:30.407Z,18.02
2019-04-14T21:55:58.857Z,18.05
2019-04-14T21:58:37.945Z,18.37
2019-04-14T22:01:36.783Z,18.50
2019-04-14T22:04:12.728Z,17.17
2019-04-14T22:06:51.717Z,19.02
2019-04-14T22:09:24.593Z,17.92
2019-04-14T22:11:53.037Z,17.40
2019-04-14T22:14:21.684Z,17.85
2019-04-14T22:16:50.389Z,17.98
2019-04-14T22:19:19.504Z,17.70
2019-04-14T22:21:48.245Z,16.60
2019-04-14T22:24:16.758Z,17.52
2019-04-14T22:26:45.478Z,17.25
2019-04-14T22:29:13.933Z,17.30
2019-04-14T22:31:42.432Z,16.77
2019-04-14T22:34:11.140Z,17.60
2019-04-14T22:36:39.618Z,17.80
2019-04-14T22:39:09.965Z,18.23
2019-04-14T22:41:38.840Z,17.50
2019-04-14T22:44:07.284Z,17.62
2019-04-14T22:46:35.749Z,16.50
2019-04-14T22:49:04.281Z,18.00
2019-04-14T22:51:32.993Z,16.87
2019-04-14T22:54:01.502Z,17.45
2019-04-14T22:56:39.105Z,16.42
2019-04-14T22:59:00.173Z,16.05
2019-04-14T23:01:32.962Z,16.23
2019-04-14T23:04:19.345Z,15.88
2019-04-14T23:06:58.700Z,15.43
2019-04-14T23:09:31.801Z,15.28
2019-04-14T23:12:16.984Z,15.58
2019-04-14T23:17:31.967Z,14.18
2019-04-14T23:20:18.085Z,13.98
2019-04-14T23:22:51.118Z,15.05
2019-04-14T23:25:19.612Z,14.87
2019-04-14T23:27:48.385Z,14.25
2019-04-14T23:30:17.273Z,14.73
2019-04-14T23:32:45.995Z,14.38
2019-04-14T23:35:14.511Z,14.85
2019-04-14T23:37:42.991Z,15.30
2019-04-14T23:40:13.052Z,14.55
2019-04-14T23:42:41.529Z,14.50
2019-04-14T23:45:10.349Z,13.90
2019-04-14T23:47:39.086Z,14.68
2019-04-14T23:50:08.233Z,15.03
2019-04-14T23:52:37.004Z,14.50
2019-04-14T23:55:06.855Z,15.05
2019-04-14T23:57:35.585Z,14.38
